Time;durP1;ratioP1;P1;durP2;ratioP2;P2;SDS_P1;SDS_P2;PMS_P1;PMS_P2;Temp;Humidity;BMP_temperature;BMP_pressure;BME280_temperature;BME280_humidity;BME280_pressure;Samples;Min_cycle;Max_cycle;Signal;HPM_P1;HPM_P2
2023/03/23 00:02:26;;;;;;;9.02;3.45;;;13.40;82.00;;;;;;5090876;28;20417;-64
2023/03/23 00:04:53;;;;;;;8.73;3.25;;;13.40;82.00;;;;;;5092311;28;20039;-64
2023/03/23 00:07:21;;;;;;;6.93;3.25;;;13.40;82.00;;;;;;5093316;28;20074;-66
2023/03/23 00:09:53;;;;;;;7.07;3.00;;;13.40;81.80;;;;;;5096521;28;20032;-64
2023/03/23 00:12:33;;;;;;;8.55;3.13;;;13.40;81.70;;;;;;5095715;28;20020;-64
2023/03/23 00:15:07;;;;;;;6.53;2.70;;;13.40;81.60;;;;;;5094477;28;20031;-64
2023/03/23 00:17:34;;;;;;;6.28;2.92;;;13.40;81.60;;;;;;5095281;28;20077;-64
2023/03/23 00:20:06;;;;;;;7.05;3.20;;;13.40;81.50;;;;;;5103259;28;20023;-64
2023/03/23 00:22:37;;;;;;;6.85;2.67;;;13.40;82.10;;;;;;5095525;28;20031;-65
2023/03/23 00:25:04;;;;;;;6.95;2.85;;;13.40;81.40;;;;;;5095225;28;20043;-65
2023/03/23 00:27:30;;;;;;;10.50;3.00;;;13.40;81.40;;;;;;5087404;28;20056;-64
2023/03/23 00:29:56;;;;;;;6.97;3.35;;;13.40;81.30;;;;;;5099935;28;20055;-65
2023/03/23 00:32:29;;;;;;;6.13;2.72;;;13.40;81.30;;;;;;5097380;28;20024;-64
2023/03/23 00:34:58;;;;;;;9.27;3.70;;;13.40;81.30;;;;;;5093005;28;20536;-64
2023/03/23 00:37:25;;;;;;;7.38;3.45;;;13.40;81.20;;;;;;5091157;28;20024;-64
2023/03/23 00:39:51;;;;;;;6.38;2.90;;;13.40;81.20;;;;;;5098149;28;20028;-64
2023/03/23 00:42:17;;;;;;;8.07;2.70;;;13.40;81.20;;;;;;5103544;28;20039;-65
2023/03/23 00:44:43;;;;;;;6.78;3.13;;;13.40;81.10;;;;;;5095842;28;20035;-64
2023/03/23 00:47:10;;;;;;;6.10;3.05;;;13.50;81.10;;;;;;5095180;28;20444;-64
2023/03/23 00:49:38;;;;;;;8.25;2.75;;;13.50;81.00;;;;;;5103517;28;20024;-64
2023/03/23 00:52:05;;;;;;;6.50;2.97;;;13.50;81.00;;;;;;5084128;28;20027;-65
2023/03/23 00:54:33;;;;;;;6.47;2.92;;;13.50;80.90;;;;;;5095726;28;20357;-64
2023/03/23 00:56:59;;;;;;;8.18;3.55;;;13.50;80.80;;;;;;5086657;28;20039;-64
2023/03/23 00:59:25;;;;;;;6.10;3.03;;;13.40;80.80;;;;;;5105547;28;20027;-64
2023/03/23 01:01:51;;;;;;;7.68;3.10;;;13.50;80.80;;;;;;5102818;28;20687;-64
2023/03/23 01:04:17;;;;;;;7.25;3.10;;;13.50;80.80;;;;;;5096378;28;20028;-64
2023/03/23 01:06:44;;;;;;;6.15;2.97;;;13.50;80.70;;;;;;5098125;28;20085;-64
2023/03/23 01:09:16;;;;;;;6.85;2.95;;;13.40;80.60;;;;;;5102718;28;20444;-64
2023/03/23 01:11:43;;;;;;;8.38;2.97;;;13.50;80.70;;;;;;5107529;28;20333;-64
2023/03/23 01:14:11;;;;;;;6.82;3.10;;;13.40;80.60;;;;;;5095289;28;20035;-64
2023/03/23 01:16:36;;;;;;;9.10;3.38;;;13.40;80.50;;;;;;5093413;28;20379;-65
2023/03/23 01:19:02;;;;;;;7.90;3.05;;;13.40;81.20;;;;;;5101853;28;20031;-65
2023/03/23 01:21:29;;;;;;;8.10;3.28;;;13.40;80.50;;;;;;5108409;28;20111;-65
2023/03/23 01:23:55;;;;;;;5.95;3.08;;;13.50;80.50;;;;;;5094899;28;20040;-65
2023/03/23 01:26:23;;;;;;;7.72;3.30;;;13.40;80.50;;;;;;5089794;28;20046;-65
2023/03/23 01:28:50;;;;;;;7.47;2.80;;;13.40;80.50;;;;;;5095517;28;20024;-65
2023/03/23 01:31:21;;;;;;;7.38;2.88;;;13.40;80.50;;;;;;5088229;28;20405;-65
2023/03/23 01:33:50;;;;;;;5.93;3.00;;;13.40;80.50;;;;;;5094876;28;20486;-65
2023/03/23 01:36:20;;;;;;;6.95;3.10;;;13.40;80.50;;;;;;5098262;28;20130;-65
2023/03/23 01:38:48;;;;;;;7.65;3.25;;;13.40;80.50;;;;;;5098002;28;20077;-65
2023/03/23 01:41:15;;;;;;;6.22;3.08;;;13.40;80.50;;;;;;5098447;28;20032;-64
2023/03/23 01:44:03;;;;;;;7.18;2.90;;;13.40;80.40;;;;;;5095362;28;20059;-65
2023/03/23 01:46:36;;;;;;;6.63;3.00;;;13.40;80.30;;;;;;5087425;28;20520;-65
2023/03/23 01:49:09;;;;;;;5.43;2.78;;;13.40;80.30;;;;;;5104627;28;20020;-65
2023/03/23 01:51:43;;;;;;;6.10;2.90;;;13.40;80.20;;;;;;5097856;28;20024;-64
2023/03/23 01:54:13;;;;;;;6.85;2.92;;;13.40;80.20;;;;;;5088791;28;20042;-65
2023/03/23 01:56:48;;;;;;;7.50;3.10;;;13.40;80.10;;;;;;5087919;28;20027;-65
2023/03/23 01:59:15;;;;;;;5.60;2.50;;;13.40;80.00;;;;;;5093679;28;20457;-65
2023/03/23 02:01:45;;;;;;;9.75;2.97;;;13.40;80.00;;;;;;5080480;28;20031;-65
2023/03/23 02:04:16;;;;;;;7.25;3.25;;;13.40;80.00;;;;;;5092827;28;20081;-64
2023/03/23 02:06:44;;;;;;;;;;;13.40;79.90;;;;;;5093309;28;20020;-64
2023/03/23 02:09:18;;;;;;;5.88;2.85;;;13.40;79.90;;;;;;5088949;28;19916;-65
2023/03/23 02:11:47;;;;;;;9.25;3.42;;;13.40;79.90;;;;;;5097459;28;20012;-65
2023/03/23 02:14:14;;;;;;;5.97;3.00;;;13.40;79.90;;;;;;5097222;28;20425;-65
2023/03/23 02:17:00;;;;;;;8.13;3.20;;;13.40;79.90;;;;;;5088384;28;20020;-65
2023/03/23 02:20:10;;;;;;;7.50;3.00;;;13.40;79.90;;;;;;5096948;28;20036;-65
2023/03/23 02:22:57;;;;;;;6.78;2.90;;;13.50;80.00;;;;;;5099309;28;20036;-65
2023/03/23 02:25:26;;;;;;;6.60;3.13;;;13.50;80.00;;;;;;5084949;28;20472;-65
2023/03/23 02:28:17;;;;;;;6.55;3.35;;;13.40;79.90;;;;;;5090776;28;20039;-65
2023/03/23 02:30:52;;;;;;;6.65;2.83;;;13.50;80.00;;;;;;5087711;28;20024;-65
2023/03/23 02:33:38;;;;;;;6.13;2.92;;;13.50;80.00;;;;;;5095718;28;20020;-65
2023/03/23 02:36:24;;;;;;;6.32;3.00;;;13.50;80.00;;;;;;5072081;28;20119;-65
2023/03/23 02:39:15;;;;;;;7.88;3.10;;;13.50;80.00;;;;;;5094604;28;20028;-65
2023/03/23 02:41:58;;;;;;;6.87;2.70;;;13.50;79.90;;;;;;5101035;28;20048;-64
2023/03/23 02:44:29;;;;;;;5.35;2.70;;;13.50;79.90;;;;;;5070623;28;20139;-64
2023/03/23 02:46:59;;;;;;;7.57;3.15;;;13.50;79.90;;;;;;5085812;28;20024;-64
2023/03/23 02:49:27;;;;;;;5.30;2.60;;;13.50;79.90;;;;;;5109182;28;20031;-64
2023/03/23 02:51:56;;;;;;;6.80;3.03;;;13.50;79.80;;;;;;5093038;28;20019;-64
2023/03/23 02:54:25;;;;;;;5.75;2.80;;;13.50;79.90;;;;;;5085969;28;20044;-64
2023/03/23 02:56:54;;;;;;;6.95;3.25;;;13.50;79.90;;;;;;5088263;28;20026;-64
2023/03/23 02:59:25;;;;;;;6.63;2.85;;;13.50;80.00;;;;;;5091852;28;20040;-65
2023/03/23 03:02:03;;;;;;;9.15;3.38;;;13.50;80.00;;;;;;5099133;28;20157;-65
2023/03/23 03:04:33;;;;;;;7.32;3.40;;;13.50;79.90;;;;;;5085094;28;20032;-65
2023/03/23 03:07:02;;;;;;;6.15;2.72;;;13.60;79.90;;;;;;5090095;28;20449;-64
2023/03/23 03:10:00;;;;;;;7.63;3.40;;;13.60;79.90;;;;;;5093350;28;20330;-63
2023/03/23 03:12:36;;;;;;;6.88;3.30;;;13.60;79.80;;;;;;5097563;28;20077;-64
2023/03/23 03:15:26;;;;;;;6.20;3.05;;;13.60;79.80;;;;;;5093969;28;20028;-64
2023/03/23 03:18:17;;;;;;;5.95;3.15;;;13.60;79.70;;;;;;5092312;28;20183;-64
2023/03/23 03:20:53;;;;;;;6.40;3.05;;;13.60;79.70;;;;;;5094499;28;20403;-64
2023/03/23 03:23:24;;;;;;;6.70;3.00;;;13.60;79.70;;;;;;5096079;28;20541;-64
2023/03/23 03:25:54;;;;;;;6.97;3.60;;;13.60;79.70;;;;;;5089660;28;20077;-64
2023/03/23 03:28:28;;;;;;;6.20;2.83;;;13.60;79.70;;;;;;5099877;28;20028;-64
2023/03/23 03:30:57;;;;;;;6.90;3.10;;;13.60;79.60;;;;;;5094659;28;20115;-64
2023/03/23 03:33:27;;;;;;;7.13;3.28;;;13.60;79.60;;;;;;5092273;28;20429;-64
2023/03/23 03:35:57;;;;;;;7.72;3.28;;;13.60;79.50;;;;;;5089488;28;20162;-64
2023/03/23 03:38:23;;;;;;;6.10;2.97;;;13.60;79.50;;;;;;5092307;28;20069;-64
2023/03/23 03:40:50;;;;;;;7.22;3.28;;;13.60;79.50;;;;;;5089648;28;20035;-64
2023/03/23 03:43:16;;;;;;;9.52;3.40;;;13.60;79.50;;;;;;5097241;28;20114;-64
2023/03/23 03:45:42;;;;;;;6.55;3.03;;;13.60;79.50;;;;;;5092895;28;20161;-64
2023/03/23 03:48:08;;;;;;;5.93;2.90;;;13.60;79.50;;;;;;5098002;28;20461;-64
2023/03/23 03:50:34;;;;;;;7.05;3.40;;;13.60;79.50;;;;;;5092246;28;20031;-64
2023/03/23 03:53:00;;;;;;;6.85;3.30;;;13.60;79.40;;;;;;5093611;28;20016;-64
2023/03/23 03:55:27;;;;;;;7.20;3.60;;;13.70;79.50;;;;;;5094412;28;20085;-64
2023/03/23 03:57:55;;;;;;;7.63;3.20;;;13.60;79.40;;;;;;5086059;28;20106;-64
2023/03/23 04:00:50;;;;;;;6.40;2.90;;;13.70;79.40;;;;;;5096295;28;20044;-64
2023/03/23 04:03:20;;;;;;;6.15;2.92;;;13.70;79.40;;;;;;5098520;28;20028;-64
2023/03/23 04:05:59;;;;;;;5.97;3.03;;;13.70;79.40;;;;;;5098542;28;20032;-64
2023/03/23 04:08:26;;;;;;;6.20;3.10;;;13.70;79.30;;;;;;5095911;28;20089;-64
2023/03/23 04:10:53;;;;;;;7.57;3.10;;;13.60;79.20;;;;;;5097139;28;20158;-64
2023/03/23 04:13:20;;;;;;;7.55;3.40;;;13.70;79.20;;;;;;5093761;28;20056;-64
2023/03/23 04:16:08;;;;;;;7.20;2.80;;;13.70;79.20;;;;;;5100675;28;20032;-64
2023/03/23 04:18:36;;;;;;;5.65;2.80;;;13.70;79.10;;;;;;5095377;28;20031;-64
2023/03/23 04:21:03;;;;;;;5.60;2.72;;;13.70;79.10;;;;;;5095335;28;20024;-64
2023/03/23 04:23:33;;;;;;;6.47;2.90;;;13.70;79.10;;;;;;5099390;28;20502;-64
2023/03/23 04:26:03;;;;;;;6.53;3.25;;;13.70;79.00;;;;;;5094997;28;20046;-64
2023/03/23 04:28:34;;;;;;;7.25;2.83;;;13.70;79.00;;;;;;5105638;28;20067;-64
2023/03/23 04:31:26;;;;;;;8.70;3.70;;;13.70;78.90;;;;;;5090689;28;20472;-64
2023/03/23 04:33:59;;;;;;;8.07;3.22;;;13.70;78.80;;;;;;5083878;28;20102;-64
2023/03/23 04:36:28;;;;;;;6.15;2.50;;;13.70;78.80;;;;;;5084571;28;20345;-64
2023/03/23 04:39:02;;;;;;;7.55;3.38;;;13.70;78.70;;;;;;5094937;28;20108;-64
2023/03/23 04:41:29;;;;;;;7.32;3.10;;;13.70;78.70;;;;;;5079056;28;20024;-64
2023/03/23 04:44:05;;;;;;;6.93;2.67;;;13.70;78.60;;;;;;5099423;28;20084;-64
2023/03/23 04:46:38;;;;;;;7.75;2.90;;;13.70;78.50;;;;;;5091238;28;20058;-65
2023/03/23 04:49:09;;;;;;;7.78;2.92;;;13.70;78.50;;;;;;5098892;28;20478;-65
2023/03/23 04:51:39;;;;;;;5.10;2.30;;;13.70;78.50;;;;;;5085830;28;20020;-64
2023/03/23 04:54:31;;;;;;;6.20;2.70;;;13.70;78.40;;;;;;5092835;28;20028;-64
2023/03/23 04:56:59;;;;;;;6.63;2.50;;;13.70;78.30;;;;;;5093442;28;20042;-64
2023/03/23 04:59:27;;;;;;;9.13;2.60;;;13.70;78.20;;;;;;5093771;28;20111;-64
2023/03/23 05:02:12;;;;;;;6.85;2.90;;;13.70;78.20;;;;;;5086436;28;20079;-65
2023/03/23 05:04:43;;;;;;;7.18;2.58;;;13.70;78.10;;;;;;5098468;28;20036;-64
2023/03/23 05:07:12;;;;;;;6.50;2.85;;;13.70;77.90;;;;;;5083632;28;20448;-64
2023/03/23 05:09:47;;;;;;;4.88;2.10;;;13.70;77.80;;;;;;5076379;28;20020;-64
2023/03/23 05:12:14;;;;;;;7.88;2.63;;;13.80;77.80;;;;;;5088992;28;20032;-64
2023/03/23 05:14:57;;;;;;;6.65;2.28;;;13.70;77.70;;;;;;5083984;28;20020;-65
2023/03/23 05:17:26;;;;;;;6.72;2.42;;;13.70;77.60;;;;;;5082636;28;20063;-65
2023/03/23 05:19:56;;;;;;;6.95;2.28;;;13.70;77.50;;;;;;5078083;28;20048;-64
2023/03/23 05:22:51;;;;;;;6.03;2.83;;;13.70;77.40;;;;;;5088568;28;20364;-65
2023/03/23 05:25:23;;;;;;;6.90;2.50;;;13.70;77.30;;;;;;5093719;28;20030;-66
2023/03/23 05:27:58;;;;;;;9.30;2.30;;;13.70;77.20;;;;;;5093449;28;20368;-64
2023/03/23 05:30:43;;;;;;;8.07;2.10;;;13.70;77.10;;;;;;5093594;28;20024;-64
2023/03/23 05:33:10;;;;;;;6.65;2.33;;;13.70;77.10;;;;;;5092567;28;20157;-65
2023/03/23 05:35:48;;;;;;;6.78;1.92;;;13.70;77.70;;;;;;5091162;28;20062;-65
2023/03/23 05:38:18;;;;;;;6.60;2.55;;;13.70;76.90;;;;;;5090135;28;20140;-65
2023/03/23 05:40:44;;;;;;;7.75;2.20;;;13.70;76.90;;;;;;5092683;28;20092;-64
2023/03/23 05:43:14;;;;;;;7.03;2.58;;;13.70;76.80;;;;;;5091435;28;20028;-64
2023/03/23 05:46:07;;;;;;;9.80;2.40;;;13.70;76.80;;;;;;5082919;28;20081;-64
2023/03/23 05:48:34;;;;;;;7.38;1.95;;;13.70;76.70;;;;;;5092868;28;20441;-64
2023/03/23 05:51:01;;;;;;;9.95;2.10;;;13.70;76.70;;;;;;5091439;28;20415;-64
2023/03/23 05:53:30;;;;;;;6.97;2.10;;;13.70;76.60;;;;;;5093376;28;20571;-64
2023/03/23 05:56:01;;;;;;;5.35;1.80;;;13.70;76.60;;;;;;5093741;28;20361;-64
2023/03/23 05:58:43;;;;;;;7.65;2.03;;;13.70;76.50;;;;;;5085842;28;20030;-64
2023/03/23 06:01:12;;;;;;;7.10;2.20;;;13.70;76.50;;;;;;5094393;28;20400;-64
2023/03/23 06:03:38;;;;;;;6.07;1.85;;;13.70;76.50;;;;;;5094360;28;20023;-64
2023/03/23 06:06:15;;;;;;;5.22;2.00;;;13.70;76.40;;;;;;5093599;28;20160;-64
2023/03/23 06:08:50;;;;;;;6.15;1.88;;;13.70;76.40;;;;;;5094041;28;20069;-64
2023/03/23 06:11:19;;;;;;;10.27;2.53;;;13.70;76.40;;;;;;5094502;28;20028;-64
2023/03/23 06:14:00;;;;;;;6.10;1.90;;;13.80;76.40;;;;;;5094509;28;20279;-64
2023/03/23 06:16:29;;;;;;;5.70;1.73;;;13.70;76.30;;;;;;5087629;28;20028;-64
2023/03/23 06:19:00;;;;;;;5.30;1.55;;;13.70;76.30;;;;;;5080085;28;20322;-64
2023/03/23 06:21:32;;;;;;;6.38;2.13;;;13.80;76.30;;;;;;5092534;28;20423;-63
2023/03/23 06:24:03;;;;;;;5.57;1.80;;;13.80;76.20;;;;;;5091824;28;20047;-64
2023/03/23 06:26:38;;;;;;;7.00;1.63;;;13.80;76.20;;;;;;5076050;28;20097;-64
2023/03/23 06:29:11;;;;;;;7.70;1.90;;;13.80;76.10;;;;;;5093819;28;20393;-64
2023/03/23 06:31:47;;;;;;;7.15;2.00;;;13.80;76.10;;;;;;5098202;28;20016;-64
2023/03/23 06:34:14;;;;;;;6.43;2.05;;;13.90;76.10;;;;;;5092171;28;20055;-64
2023/03/23 06:36:59;;;;;;;5.80;1.98;;;13.90;76.00;;;;;;5097860;28;20034;-64
2023/03/23 06:39:36;;;;;;;8.38;2.30;;;13.90;75.90;;;;;;5095911;28;20105;-64
2023/03/23 06:42:13;;;;;;;6.82;1.67;;;14.00;75.90;;;;;;5097065;28;20045;-64
2023/03/23 06:44:45;;;;;;;5.43;1.27;;;14.00;75.90;;;;;;5098771;28;20032;-64
2023/03/23 06:47:12;;;;;;;7.47;2.17;;;14.00;75.80;;;;;;5091032;28;20069;-63
2023/03/23 06:49:44;;;;;;;6.90;1.67;;;14.00;75.80;;;;;;5097417;28;20322;-63
2023/03/23 06:52:19;;;;;;;3.17;1.08;;;14.00;75.60;;;;;;5092149;28;20032;-63
2023/03/23 06:54:45;;;;;;;5.88;2.00;;;14.00;75.60;;;;;;5092978;28;20020;-63
2023/03/23 06:57:12;;;;;;;5.88;1.60;;;14.00;75.60;;;;;;5091751;28;20027;-63
2023/03/23 06:59:38;;;;;;;5.32;1.80;;;14.00;75.60;;;;;;5097711;28;20028;-64
2023/03/23 07:02:05;;;;;;;7.22;1.65;;;14.00;75.60;;;;;;5097176;28;20028;-62
2023/03/23 07:04:32;;;;;;;7.53;2.00;;;14.00;75.60;;;;;;5088485;28;20313;-63
2023/03/23 07:07:09;;;;;;;8.65;2.28;;;14.00;75.60;;;;;;5094129;28;20028;-63
2023/03/23 07:09:43;;;;;;;6.78;2.03;;;14.00;76.30;;;;;;5096017;28;20362;-63
2023/03/23 07:12:09;;;;;;;8.85;1.70;;;14.00;75.70;;;;;;5090479;28;20681;-63
2023/03/23 07:14:41;;;;;;;5.70;1.40;;;14.00;75.80;;;;;;5091212;28;20035;-63
2023/03/23 07:17:07;;;;;;;6.80;1.70;;;14.00;75.80;;;;;;5077041;28;20059;-63
2023/03/23 07:19:37;;;;;;;4.70;1.73;;;14.00;75.80;;;;;;5080160;28;20464;-63
2023/03/23 07:22:07;;;;;;;7.40;1.73;;;14.00;75.80;;;;;;5074555;28;20286;-63
2023/03/23 07:24:34;;;;;;;7.05;1.80;;;13.90;75.80;;;;;;5095697;28;20077;-63
2023/03/23 07:27:09;;;;;;;5.40;1.90;;;13.90;75.80;;;;;;5085757;28;20048;-63
2023/03/23 07:29:38;;;;;;;6.43;1.70;;;14.00;75.90;;;;;;5092727;28;20089;-63
2023/03/23 07:32:11;;;;;;;4.85;1.67;;;14.00;75.90;;;;;;5091125;28;20066;-63
2023/03/23 07:34:38;;;;;;;8.23;1.67;;;14.00;75.80;;;;;;5096204;28;20498;-64
2023/03/23 07:37:16;;;;;;;5.60;2.00;;;14.10;75.80;;;;;;5094126;28;20051;-63
2023/03/23 07:39:46;;;;;;;7.45;1.80;;;14.10;75.70;;;;;;5085495;28;20037;-63
2023/03/23 07:42:12;;;;;;;8.32;2.03;;;14.10;75.60;;;;;;5097287;28;20355;-63
2023/03/23 07:44:47;;;;;;;5.18;1.65;;;14.20;75.50;;;;;;5094473;28;20083;-63
2023/03/23 07:47:13;;;;;;;5.65;1.52;;;14.10;76.00;;;;;;5088339;28;20540;-63
2023/03/23 07:49:40;;;;;;;5.72;1.50;;;14.10;75.30;;;;;;5094834;28;20390;-63
2023/03/23 07:52:15;;;;;;;4.88;1.45;;;14.10;75.10;;;;;;5098092;28;20031;-63
2023/03/23 07:54:41;;;;;;;6.53;2.00;;;14.00;75.10;;;;;;5098122;28;20031;-64
2023/03/23 07:57:16;;;;;;;5.43;1.67;;;14.00;75.10;;;;;;5101972;28;20675;-63
2023/03/23 07:59:47;;;;;;;7.15;1.58;;;14.00;75.10;;;;;;5093686;28;20024;-62
2023/03/23 08:02:13;;;;;;;5.72;1.73;;;14.00;75.20;;;;;;5093453;28;20024;-63
2023/03/23 08:04:39;;;;;;;10.57;2.28;;;14.00;75.30;;;;;;5100065;28;20044;-63
2023/03/23 08:07:23;;;;;;;7.80;1.75;;;13.90;75.40;;;;;;5094312;28;20487;-63
2023/03/23 08:10:03;;;;;;;3.67;1.20;;;13.90;75.60;;;;;;5094550;28;20116;-62
2023/03/23 08:12:43;;;;;;;5.20;1.85;;;13.80;75.80;;;;;;5096975;28;20024;-62
2023/03/23 08:15:28;;;;;;;6.95;1.90;;;13.70;76.10;;;;;;5098636;28;20612;-63
2023/03/23 08:18:19;;;;;;;6.55;1.92;;;13.70;76.40;;;;;;5093023;28;20040;-63
2023/03/23 08:21:05;;;;;;;7.28;1.90;;;13.70;76.60;;;;;;5097608;28;20049;-63
2023/03/23 08:23:45;;;;;;;8.30;1.92;;;13.70;76.70;;;;;;5094992;28;20092;-63
2023/03/23 08:26:26;;;;;;;6.07;1.80;;;13.70;76.80;;;;;;5102170;28;20039;-63
2023/03/23 08:28:55;;;;;;;5.65;1.90;;;13.80;76.90;;;;;;5099076;28;20166;-63
2023/03/23 08:31:20;;;;;;;6.45;1.80;;;13.80;77.00;;;;;;5101945;28;20471;-63
2023/03/23 08:33:52;;;;;;;6.78;1.63;;;13.90;77.10;;;;;;5092306;28;20035;-63
2023/03/23 08:36:39;;;;;;;8.70;2.03;;;13.90;77.20;;;;;;5103055;28;20440;-64
2023/03/23 08:39:34;;;;;;;8.23;2.08;;;13.90;77.20;;;;;;5082663;28;20040;-63
2023/03/23 08:42:15;;;;;;;7.13;1.88;;;13.90;77.20;;;;;;5096775;28;20023;-63
2023/03/23 08:45:02;;;;;;;7.25;2.15;;;13.90;77.30;;;;;;5086508;28;20055;-63
2023/03/23 08:47:59;;;;;;;7.43;2.10;;;14.00;77.30;;;;;;5077576;28;20330;-64
2023/03/23 08:50:52;;;;;;;4.55;1.45;;;14.00;77.20;;;;;;5097572;28;20020;-64
2023/03/23 08:53:36;;;;;;;5.68;1.70;;;14.10;77.10;;;;;;5096725;28;20342;-65
2023/03/23 08:56:22;;;;;;;4.45;1.73;;;14.10;76.90;;;;;;5091612;28;20604;-64
2023/03/23 08:59:07;;;;;;;5.68;1.67;;;14.10;76.90;;;;;;5095988;28;20028;-64
2023/03/23 09:01:52;;;;;;;4.22;1.70;;;14.20;76.80;;;;;;5095804;28;20085;-64
2023/03/23 09:04:38;;;;;;;5.97;1.52;;;14.20;76.60;;;;;;5092646;28;20028;-64
2023/03/23 09:07:14;;;;;;;5.85;1.60;;;14.20;76.50;;;;;;5099827;28;20413;-64
2023/03/23 09:09:41;;;;;;;6.78;1.73;;;14.20;76.50;;;;;;5091308;28;20096;-64
2023/03/23 09:12:08;;;;;;;5.50;1.42;;;14.20;76.30;;;;;;5094297;28;20024;-64
2023/03/23 09:14:35;;;;;;;6.82;1.50;;;14.20;76.20;;;;;;5096475;28;20356;-62
2023/03/23 09:17:02;;;;;;;4.63;1.55;;;14.20;76.10;;;;;;5093497;28;20024;-64
2023/03/23 09:19:30;;;;;;;4.63;1.95;;;14.20;76.00;;;;;;5084214;28;20380;-63
2023/03/23 09:21:56;;;;;;;3.15;1.20;;;14.30;75.90;;;;;;5089848;28;20476;-64
2023/03/23 09:24:22;;;;;;;3.88;1.30;;;14.30;75.60;;;;;;5099046;28;20032;-64
2023/03/23 09:26:48;;;;;;;3.83;1.40;;;14.50;75.30;;;;;;5096072;28;20048;-64
2023/03/23 09:29:16;;;;;;;4.20;1.23;;;14.70;74.90;;;;;;5091765;28;20090;-64
2023/03/23 09:31:42;;;;;;;3.78;1.10;;;14.80;74.10;;;;;;5093542;28;20028;-64
2023/03/23 09:34:11;;;;;;;3.58;1.15;;;14.90;74.00;;;;;;5096450;28;20024;-64
2023/03/23 09:36:38;;;;;;;6.85;1.65;;;14.90;73.80;;;;;;5095525;28;20028;-64
2023/03/23 09:39:11;;;;;;;4.35;1.25;;;15.00;73.70;;;;;;5092068;28;20052;-64
2023/03/23 09:41:56;;;;;;;7.28;1.45;;;15.30;73.20;;;;;;5095747;28;20020;-64
2023/03/23 09:44:47;;;;;;;5.20;1.17;;;15.60;72.40;;;;;;5091989;28;20043;-64
2023/03/23 09:47:34;;;;;;;5.32;1.50;;;15.70;71.90;;;;;;5096260;28;20428;-64
2023/03/23 09:50:12;;;;;;;4.82;1.77;;;15.70;71.60;;;;;;5087663;28;20035;-65
2023/03/23 09:52:46;;;;;;;6.20;1.50;;;15.60;71.60;;;;;;5094447;28;20024;-64
2023/03/23 09:55:15;;;;;;;5.25;1.50;;;15.80;71.30;;;;;;5094595;28;20353;-65
2023/03/23 09:57:47;;;;;;;3.95;1.30;;;16.20;70.90;;;;;;5095300;28;20020;-64
2023/03/23 10:00:24;;;;;;;4.45;1.58;;;16.50;70.10;;;;;;5092966;28;20036;-65
2023/03/23 10:03:09;;;;;;;6.05;1.60;;;16.90;69.30;;;;;;5095242;28;20032;-64
2023/03/23 10:05:39;;;;;;;6.47;1.75;;;17.10;68.50;;;;;;5095695;28;20334;-64
2023/03/23 10:08:19;;;;;;;6.32;1.60;;;17.20;68.30;;;;;;5094352;28;20020;-64
2023/03/23 10:11:12;;;;;;;5.28;1.50;;;17.10;68.00;;;;;;5094911;28;20020;-64
2023/03/23 10:13:40;;;;;;;11.15;1.80;;;17.20;67.90;;;;;;5079187;28;20498;-64
2023/03/23 10:16:11;;;;;;;7.68;2.08;;;17.40;67.60;;;;;;5088862;28;20099;-63
2023/03/23 10:18:40;;;;;;;7.57;1.90;;;17.60;66.80;;;;;;5081675;28;20020;-63
2023/03/23 10:21:13;;;;;;;6.35;2.10;;;17.80;66.40;;;;;;5095427;28;20032;-63
2023/03/23 10:23:38;;;;;;;8.05;2.00;;;17.90;65.70;;;;;;5095732;28;20031;-63
2023/03/23 10:26:27;;;;;;;8.85;1.92;;;18.00;65.20;;;;;;5092643;28;20127;-63
2023/03/23 10:29:10;;;;;;;7.43;2.28;;;17.90;64.60;;;;;;5094150;28;20035;-63
2023/03/23 10:31:53;;;;;;;6.88;1.95;;;17.90;64.70;;;;;;5094548;28;20044;-63
2023/03/23 10:34:33;;;;;;;5.72;1.48;;;18.00;64.60;;;;;;5095481;28;20047;-64
2023/03/23 10:37:12;;;;;;;8.73;2.22;;;18.10;64.10;;;;;;5082891;28;20066;-63
2023/03/23 10:39:59;;;;;;;6.82;1.63;;;18.00;64.00;;;;;;5095443;28;20357;-64
2023/03/23 10:42:33;;;;;;;7.75;1.90;;;17.80;63.90;;;;;;5094543;28;20115;-63
2023/03/23 10:45:10;;;;;;;9.68;1.73;;;17.70;63.90;;;;;;5093123;28;20114;-63
2023/03/23 10:47:39;;;;;;;10.13;2.58;;;17.50;64.10;;;;;;5085969;28;20088;-63
2023/03/23 10:50:11;;;;;;;7.43;2.00;;;17.50;63.90;;;;;;5093490;28;20042;-63
2023/03/23 10:52:41;;;;;;;;;;;17.40;63.90;;;;;;5094760;28;20444;-64
2023/03/23 10:55:10;;;;;;;7.90;2.13;;;17.30;64.30;;;;;;5094465;28;19908;-64
2023/03/23 10:57:38;;;;;;;5.75;1.85;;;17.40;64.00;;;;;;5079672;28;20032;-64
2023/03/23 11:00:16;;;;;;;9.95;2.38;;;17.30;63.90;;;;;;5094120;28;20036;-64
2023/03/23 11:02:58;;;;;;;7.82;2.00;;;17.50;63.40;;;;;;5093412;28;20032;-64
2023/03/23 11:05:32;;;;;;;7.38;1.83;;;17.60;62.90;;;;;;5093375;28;20177;-65
2023/03/23 11:08:01;;;;;;;6.72;2.08;;;17.70;62.70;;;;;;5087252;28;20031;-64
2023/03/23 11:10:42;;;;;;;8.57;1.70;;;17.80;62.30;;;;;;5093830;28;20089;-63
2023/03/23 11:13:14;;;;;;;7.90;1.75;;;17.90;61.60;;;;;;5093770;28;20081;-64
2023/03/23 11:15:42;;;;;;;7.05;2.10;;;17.90;61.40;;;;;;5089766;28;20031;-63
2023/03/23 11:18:23;;;;;;;8.98;2.08;;;17.80;61.60;;;;;;5092332;28;20028;-63
2023/03/23 11:20:54;;;;;;;6.75;2.22;;;17.70;61.40;;;;;;5090745;28;20294;-62
2023/03/23 11:23:27;;;;;;;7.45;1.90;;;17.50;61.50;;;;;;5093112;28;20035;-63
2023/03/23 11:26:11;;;;;;;8.15;1.85;;;17.40;61.90;;;;;;5092447;28;20044;-63
2023/03/23 11:28:43;;;;;;;6.60;1.95;;;17.40;61.50;;;;;;5086820;28;20066;-63
2023/03/23 11:31:08;;;;;;;;;;;17.40;61.70;;;;;;5094567;28;20422;-62
2023/03/23 11:33:57;;;;;;;9.25;2.25;;;17.40;61.60;;;;;;5083770;28;19947;-62
2023/03/23 11:36:38;;;;;;;7.45;1.80;;;17.60;61.40;;;;;;5080448;28;20510;-63
2023/03/23 11:39:45;;;;;;;5.43;1.80;;;17.80;60.60;;;;;;5081042;28;20036;-62
2023/03/23 11:42:19;;;;;;;7.07;2.10;;;18.00;60.10;;;;;;5075363;28;20079;-62
2023/03/23 11:44:45;;;;;;;7.28;2.10;;;18.00;60.10;;;;;;5085733;28;20032;-63
2023/03/23 11:47:35;;;;;;;7.97;2.40;;;18.00;60.20;;;;;;5089392;28;20030;-62
2023/03/23 11:50:24;;;;;;;6.50;2.10;;;17.70;60.20;;;;;;5077564;28;20759;-62
2023/03/23 11:53:07;;;;;;;7.88;2.05;;;17.60;60.70;;;;;;5084942;28;20347;-64
2023/03/23 11:55:55;;;;;;;6.85;1.98;;;17.40;61.00;;;;;;5092561;28;20035;-64
2023/03/23 11:58:22;;;;;;;8.35;2.13;;;17.20;61.30;;;;;;5089868;28;20118;-64
2023/03/23 12:01:11;;;;;;;7.63;2.00;;;17.00;61.50;;;;;;5080079;28;20029;-63
2023/03/23 12:03:47;;;;;;;7.50;1.65;;;16.90;61.90;;;;;;5084169;28;20100;-64
2023/03/23 12:06:31;;;;;;;5.90;1.90;;;16.80;62.20;;;;;;5092349;28;20039;-63
2023/03/23 12:09:25;;;;;;;6.97;2.13;;;16.70;62.50;;;;;;5092992;28;20067;-63
2023/03/23 12:12:03;;;;;;;7.18;2.33;;;16.50;62.60;;;;;;5091219;28;20365;-63
2023/03/23 12:15:08;;;;;;;4.72;1.58;;;16.50;63.00;;;;;;5090914;28;20063;-63
2023/03/23 12:18:00;;;;;;;7.40;1.90;;;16.50;63.30;;;;;;5096340;28;20046;-64
2023/03/23 12:20:47;;;;;;;8.48;2.22;;;16.50;63.50;;;;;;5093641;28;20032;-63
2023/03/23 12:23:49;;;;;;;5.72;2.00;;;16.50;63.70;;;;;;5092034;28;20451;-63
2023/03/23 12:26:18;;;;;;;5.53;2.22;;;16.50;64.20;;;;;;5071089;28;20067;-64
2023/03/23 12:29:22;;;;;;;6.43;2.17;;;16.60;64.30;;;;;;5092241;28;20063;-63
2023/03/23 12:32:12;;;;;;;5.57;1.77;;;16.80;64.50;;;;;;5091663;28;20467;-63
2023/03/23 12:34:47;;;;;;;5.45;2.05;;;17.00;64.10;;;;;;5087199;28;20035;-63
2023/03/23 12:37:43;;;;;;;35.78;4.65;;;17.20;63.70;;;;;;5093419;28;20056;-62
2023/03/23 12:40:15;;;;;;;9.93;2.42;;;17.20;63.60;;;;;;5092962;28;20047;-63
2023/03/23 12:43:20;;;;;;;7.90;2.67;;;17.20;63.60;;;;;;5097742;28;20058;-63
2023/03/23 12:46:14;;;;;;;7.95;2.20;;;17.20;63.50;;;;;;5091323;28;20064;-63
2023/03/23 12:48:44;;;;;;;7.47;2.30;;;17.20;63.40;;;;;;5097758;28;20386;-63
2023/03/23 12:51:19;;;;;;;6.80;2.13;;;17.10;63.50;;;;;;5097374;28;20087;-63
2023/03/23 12:54:05;;;;;;;6.95;1.90;;;17.00;63.40;;;;;;5091323;28;20066;-63
2023/03/23 12:56:56;;;;;;;6.15;1.83;;;16.80;63.50;;;;;;5085069;28;20032;-63
2023/03/23 12:59:47;;;;;;;7.68;2.13;;;16.80;63.70;;;;;;5095845;28;20150;-63
2023/03/23 13:02:25;;;;;;;6.90;1.70;;;16.60;63.70;;;;;;5097352;28;20073;-63
2023/03/23 13:05:23;;;;;;;6.45;1.90;;;16.50;63.90;;;;;;5092282;28;20444;-63
2023/03/23 13:08:09;;;;;;;5.65;1.88;;;16.40;64.80;;;;;;5095044;28;20035;-63
2023/03/23 13:10:51;;;;;;;8.63;2.25;;;16.20;66.00;;;;;;5096554;28;20036;-63
2023/03/23 13:13:25;;;;;;;7.13;2.20;;;16.00;67.10;;;;;;5083473;28;20036;-63
2023/03/23 13:16:26;;;;;;;7.18;2.15;;;15.80;68.00;;;;;;5095709;28;20028;-64
2023/03/23 13:19:14;;;;;;;6.38;1.88;;;15.70;68.80;;;;;;5102577;28;20114;-63
2023/03/23 13:21:40;;;;;;;6.90;2.17;;;15.60;69.50;;;;;;5095837;28;20028;-63
2023/03/23 13:24:15;;;;;;;6.75;2.40;;;15.50;69.80;;;;;;5092542;28;20038;-64
2023/03/23 13:26:42;;;;;;;9.25;2.33;;;15.40;70.30;;;;;;5088984;28;20141;-64
2023/03/23 13:29:19;;;;;;;8.10;2.38;;;15.40;70.70;;;;;;5096618;28;20120;-64